Time;durP1;ratioP1;P1;durP2;ratioP2;P2;SDS_P1;SDS_P2;PMS_P1;PMS_P2;Temp;Humidity;BMP_temperature;BMP_pressure;BME280_temperature;BME280_humidity;BME280_pressure;Samples;Min_cycle;Max_cycle;Signal;HPM_P1;HPM_P2
2024/01/21 00:11:56;;;;;;;3.40;0.70;;;;;;;5.81;100.00;99098.16;4933977;29;20042;-96
2024/01/21 00:15:22;;;;;;;3.97;0.95;;;;;;;5.80;100.00;99112.25;4918189;29;20035;-96
2024/01/21 01:20:03;;;;;;;4.40;0.50;;;;;;;5.71;100.00;99043.16;5055230;28;20102;-96
2024/01/21 02:18:55;;;;;;;4.00;0.50;;;;;;;5.33;100.00;99019.66;5512050;22;20415;-88
2024/01/21 02:21:26;;;;;;;1.75;0.50;;;;;;;5.26;100.00;99004.63;5061543;28;20028;-87
2024/01/21 02:23:55;;;;;;;5.15;0.57;;;;;;;5.24;100.00;99010.03;5061800;28;20023;-88
2024/01/21 02:26:23;;;;;;;2.83;0.65;;;;;;;5.20;100.00;99013.91;5061448;28;20031;-88
2024/01/21 02:28:49;;;;;;;3.63;0.80;;;;;;;5.27;100.00;99017.59;5073455;28;20499;-93
2024/01/21 02:31:15;;;;;;;6.13;0.95;;;;;;;5.34;100.00;99015.22;5063581;28;20035;-94
2024/01/21 02:33:41;;;;;;;6.47;0.90;;;;;;;5.43;100.00;99011.72;5073017;28;20040;-88
2024/01/21 02:36:08;;;;;;;3.90;0.80;;;;;;;5.53;100.00;99022.16;5097462;28;20027;-87
2024/01/21 02:38:36;;;;;;;2.00;0.70;;;;;;;5.55;100.00;99012.34;5058530;28;20039;-88
2024/01/21 02:41:05;;;;;;;3.45;0.88;;;;;;;5.66;100.00;99026.22;5056583;28;20069;-88
2024/01/21 02:43:31;;;;;;;1.92;0.60;;;;;;;5.70;100.00;99020.53;5060928;28;20046;-93
2024/01/21 02:45:57;;;;;;;5.35;1.25;;;;;;;5.75;100.00;99006.97;5060307;28;20494;-94
2024/01/21 02:48:23;;;;;;;10.52;1.13;;;;;;;5.83;100.00;99014.94;5057765;28;20573;-88
2024/01/21 02:50:49;;;;;;;6.35;1.23;;;;;;;5.87;100.00;99002.34;5056949;28;20032;-88
2024/01/21 02:53:15;;;;;;;3.78;0.80;;;;;;;5.93;100.00;99000.91;5077725;28;20467;-93
2024/01/21 02:55:44;;;;;;;13.80;3.63;;;;;;;5.98;100.00;98996.06;5092912;28;20024;-93
2024/01/21 02:58:10;;;;;;;7.07;1.20;;;;;;;6.07;100.00;99002.22;5072686;28;20501;-88
2024/01/21 03:00:36;;;;;;;9.95;1.10;;;;;;;6.06;100.00;98992.69;5074848;28;20059;-87
2024/01/21 03:03:02;;;;;;;14.75;1.10;;;;;;;6.16;100.00;98992.63;5077959;28;20032;-88
2024/01/21 03:05:28;;;;;;;11.20;1.38;;;;;;;6.14;100.00;98984.91;5065953;28;20036;-88
2024/01/21 03:07:57;;;;;;;7.68;1.20;;;;;;;6.14;100.00;98970.97;5062192;28;20117;-88
2024/01/21 03:10:23;;;;;;;6.40;1.20;;;;;;;6.17;100.00;98973.28;5073428;28;20035;-88
2024/01/21 03:12:49;;;;;;;10.65;1.33;;;;;;;6.18;100.00;98962.63;5058806;28;20059;-88
2024/01/21 03:15:15;;;;;;;13.52;1.40;;;;;;;6.18;100.00;98965.25;5067800;28;20118;-88
2024/01/21 03:18:02;;;;;;;5.35;1.00;;;;;;;6.18;100.00;98948.72;5059917;28;20066;-88
2024/01/21 03:20:39;;;;;;;8.25;1.05;;;;;;;6.19;100.00;98955.59;5071999;28;20294;-87
2024/01/21 03:23:05;;;;;;;8.70;1.42;;;;;;;6.20;100.00;98950.19;5058114;28;20044;-88
2024/01/21 03:25:31;;;;;;;9.75;1.23;;;;;;;6.23;100.00;98967.41;5075917;28;20028;-88
2024/01/21 03:27:57;;;;;;;7.40;1.35;;;;;;;6.22;100.00;98957.06;5040816;28;20044;-88
2024/01/21 03:30:23;;;;;;;6.25;0.95;;;;;;;6.23;100.00;98969.22;5035201;28;20297;-88
2024/01/21 03:32:49;;;;;;;9.82;1.30;;;;;;;6.23;100.00;98983.16;5038611;28;20055;-88
2024/01/21 03:35:15;;;;;;;7.43;0.98;;;;;;;6.24;100.00;98973.50;5061218;28;20028;-88
2024/01/21 03:37:40;;;;;;;13.77;1.85;;;;;;;6.24;100.00;98952.50;5054001;28;20044;-88
2024/01/21 03:40:07;;;;;;;10.25;1.00;;;;;;;6.24;100.00;98953.34;5039965;28;20028;-88
2024/01/21 03:42:32;;;;;;;14.40;1.27;;;;;;;6.26;100.00;98959.25;5054574;28;20036;-87
2024/01/21 03:44:58;;;;;;;9.18;1.27;;;;;;;6.27;100.00;98960.91;5038013;28;20058;-88
2024/01/21 03:47:24;;;;;;;10.60;1.75;;;;;;;6.27;100.00;98953.03;5061465;28;20035;-88
2024/01/21 03:49:51;;;;;;;11.15;1.33;;;;;;;6.27;100.00;98947.78;5060136;28;20031;-88
2024/01/21 03:52:17;;;;;;;10.57;1.40;;;;;;;6.27;100.00;98942.53;5041967;28;20036;-87
2024/01/21 03:54:44;;;;;;;13.52;1.60;;;;;;;6.28;100.00;98954.66;5037701;28;20069;-88
2024/01/21 03:57:10;;;;;;;10.98;1.17;;;;;;;6.26;100.00;98953.19;5038325;28;20028;-88
2024/01/21 03:59:39;;;;;;;11.30;1.02;;;;;;;6.23;100.00;98954.28;5055834;28;20039;-88
2024/01/21 04:02:04;;;;;;;18.20;2.13;;;;;;;6.23;100.00;98954.28;5040382;28;20121;-87
2024/01/21 04:04:30;;;;;;;9.27;1.38;;;;;;;6.23;100.00;98959.53;5056912;28;21103;-88
2024/01/21 04:06:56;;;;;;;10.38;1.27;;;;;;;6.21;100.00;98974.63;5050812;28;20032;-88
2024/01/21 04:09:23;;;;;;;9.73;1.10;;;;;;;6.18;100.00;98981.00;5065889;28;20071;-88
2024/01/21 04:11:52;;;;;;;11.10;1.33;;;;;;;6.23;100.00;98993.66;5038789;28;20063;-88
2024/01/21 04:14:18;;;;;;;16.67;1.85;;;;;;;6.15;100.00;98997.03;5077255;28;20024;-89
2024/01/21 04:16:43;;;;;;;6.38;1.85;;;;;;;6.11;100.00;98995.72;5038254;28;20188;-88
2024/01/21 04:19:09;;;;;;;10.77;1.80;;;;;;;6.09;100.00;98987.16;5055829;28;20079;-88
2024/01/21 04:21:38;;;;;;;12.38;1.15;;;;;;;6.13;100.00;98988.50;5073059;28;20039;-88
2024/01/21 04:24:05;;;;;;;15.30;1.33;;;;;;;6.07;100.00;98989.09;5055287;28;20028;-94
2024/01/21 04:26:31;;;;;;;11.65;1.75;;;;;;;6.05;100.00;98991.06;5035928;28;20089;-93
2024/01/21 04:28:57;;;;;;;11.10;1.52;;;;;;;6.01;100.00;98993.13;5034384;28;20032;-93
2024/01/21 04:31:23;;;;;;;16.85;1.48;;;;;;;6.03;100.00;99000.84;5068621;28;20491;-93
2024/01/21 04:33:49;;;;;;;8.18;1.48;;;;;;;5.99;100.00;99005.56;5040779;28;20040;-88
2024/01/21 04:36:19;;;;;;;7.25;1.02;;;;;;;6.06;100.00;99003.19;5040068;28;20788;-87
2024/01/21 04:38:48;;;;;;;13.20;1.38;;;;;;;6.07;100.00;99003.03;5042702;28;20040;-88
2024/01/21 04:41:15;;;;;;;12.55;1.13;;;;;;;6.11;100.00;99006.19;5033164;28;20056;-87
2024/01/21 04:43:41;;;;;;;9.75;1.10;;;;;;;6.14;100.00;99003.28;5038222;28;20032;-87
2024/01/21 04:46:07;;;;;;;18.40;2.17;;;;;;;6.16;100.00;98998.69;5056366;28;20087;-88
2024/01/21 04:48:33;;;;;;;7.80;0.75;;;;;;;6.19;100.00;99002.81;5038968;28;20036;-87
2024/01/21 04:50:59;;;;;;;13.85;0.93;;;;;;;6.22;100.00;98989.41;5081376;28;20036;-87
2024/01/21 04:53:25;;;;;;;6.78;0.90;;;;;;;6.26;100.00;98990.72;5043314;28;20383;-88
2024/01/21 04:55:51;;;;;;;9.65;0.80;;;;;;;6.30;100.00;98984.22;5040757;28;20036;-88
2024/01/21 04:58:17;;;;;;;11.90;1.33;;;;;;;6.33;100.00;98980.44;5057554;28;20050;-88
2024/01/21 05:00:42;;;;;;;8.10;0.90;;;;;;;6.37;100.00;98986.22;5052590;28;20059;-88
2024/01/21 05:03:08;;;;;;;11.77;2.72;;;;;;;6.41;100.00;98971.81;5043945;28;20457;-87
2024/01/21 05:05:35;;;;;;;5.03;0.80;;;;;;;6.41;100.00;98977.88;5038863;28;20377;-88
2024/01/21 05:08:00;;;;;;;7.97;0.80;;;;;;;6.40;100.00;98985.91;5057234;28;20476;-88
2024/01/21 05:10:26;;;;;;;7.65;1.00;;;;;;;6.36;100.00;98988.00;5059634;28;20051;-87
2024/01/21 05:12:52;;;;;;;11.35;1.08;;;;;;;6.40;100.00;98985.91;5059603;28;20039;-93
2024/01/21 05:15:18;;;;;;;9.25;0.88;;;;;;;6.38;100.00;98978.19;5039318;28;20032;-92
2024/01/21 05:17:44;;;;;;;12.60;1.13;;;;;;;6.40;100.00;98968.34;5040277;28;20036;-88
2024/01/21 05:20:11;;;;;;;7.97;0.90;;;;;;;6.45;100.00;98975.75;5085639;28;20039;-88
2024/01/21 05:22:37;;;;;;;5.10;0.70;;;;;;;6.49;100.00;98978.91;5077365;28;20035;-88
2024/01/21 05:25:03;;;;;;;7.47;0.88;;;;;;;6.52;100.00;98978.59;5075623;28;20034;-88
2024/01/21 05:27:32;;;;;;;9.65;2.25;;;;;;;6.57;100.00;98973.72;5059465;28;20118;-88
2024/01/21 05:29:58;;;;;;;8.85;0.90;;;;;;;6.55;100.00;98973.88;5056489;28;20036;-87
2024/01/21 05:32:24;;;;;;;7.78;0.77;;;;;;;6.57;100.00;98982.44;5058452;28;20031;-94
2024/01/21 05:34:50;;;;;;;8.65;1.40;;;;;;;6.57;100.00;98985.06;5083365;28;20032;-94
2024/01/21 05:37:16;;;;;;;12.48;1.20;;;;;;;6.61;100.00;98985.53;5078076;28;20035;-88
2024/01/21 05:39:42;;;;;;;6.10;0.85;;;;;;;6.62;100.00;98989.00;5062969;28;20040;-87
2024/01/21 05:42:08;;;;;;;13.00;1.25;;;;;;;6.66;100.00;98987.69;5078087;28;20035;-87
2024/01/21 05:44:34;;;;;;;11.02;0.90;;;;;;;6.69;100.00;98987.41;5080803;28;20042;-88
2024/01/21 05:47:00;;;;;;;7.03;0.85;;;;;;;6.72;100.00;98981.84;5060558;28;20030;-87
2024/01/21 05:49:26;;;;;;;8.90;1.60;;;;;;;6.75;100.00;98971.03;5089857;27;20042;-87
2024/01/21 05:51:53;;;;;;;11.18;1.05;;;;;;;6.77;100.00;98958.56;5092287;28;20069;-88
2024/01/21 05:54:18;;;;;;;11.93;1.48;;;;;;;6.76;100.00;98949.03;5061504;28;20467;-87
2024/01/21 05:56:44;;;;;;;9.45;1.15;;;;;;;6.81;100.00;98943.31;5060778;28;20032;-87
2024/01/21 05:59:12;;;;;;;16.48;1.70;;;;;;;6.85;100.00;98949.09;5069548;28;20032;-92
2024/01/21 06:01:39;;;;;;;16.73;2.17;;;;;;;6.90;100.00;98949.41;5062038;28;20071;-94
2024/01/21 06:04:05;;;;;;;9.63;1.73;;;;;;;6.89;100.00;98939.91;5064298;28;20361;-87
2024/01/21 06:06:31;;;;;;;14.48;1.48;;;;;;;6.90;100.00;98937.13;5058050;28;20046;-88
2024/01/21 06:08:57;;;;;;;9.45;1.05;;;;;;;6.94;100.00;98922.69;5063213;28;20636;-88
2024/01/21 06:11:22;;;;;;;12.25;1.50;;;;;;;6.95;100.00;98916.47;5064051;28;20028;-87
2024/01/21 06:13:48;;;;;;;15.05;2.35;;;;;;;6.95;100.00;98911.22;5060713;28;20043;-87
2024/01/21 06:16:18;;;;;;;13.45;1.63;;;;;;;7.04;100.00;98904.16;5057005;28;20042;-88
2024/01/21 06:18:44;;;;;;;11.93;1.38;;;;;;;7.03;100.00;98894.66;5066856;28;20055;-93
2024/01/21 06:21:10;;;;;;;18.55;2.40;;;;;;;7.06;100.00;98883.81;5039791;28;20028;-92
2024/01/21 06:23:36;;;;;;;21.98;2.88;;;;;;;7.03;100.00;98881.50;5079154;28;20064;-88
2024/01/21 06:26:02;;;;;;;16.08;1.98;;;;;;;7.10;100.00;98876.44;5059990;28;20028;-87
2024/01/21 06:28:29;;;;;;;16.08;1.98;;;;;;;7.14;100.00;98875.13;5053515;28;20047;-88
2024/01/21 06:30:54;;;;;;;14.82;2.22;;;;;;;7.14;100.00;98861.16;5038810;28;20040;-88
2024/01/21 06:33:20;;;;;;;16.73;1.90;;;;;;;7.04;100.00;98854.25;5039088;28;20040;-93
2024/01/21 06:35:46;;;;;;;14.07;1.75;;;;;;;7.10;100.00;98865.94;5042260;28;20044;-92
2024/01/21 06:38:12;;;;;;;17.95;2.95;;;;;;;7.09;100.00;98877.41;5043041;28;20034;-87
2024/01/21 06:40:38;;;;;;;13.20;2.13;;;;;;;7.00;100.00;98863.44;5040990;28;20040;-88
2024/01/21 06:43:04;;;;;;;11.35;2.17;;;;;;;6.99;100.00;98838.13;5047613;28;20044;-88
2024/01/21 06:45:30;;;;;;;12.63;1.45;;;;;;;6.94;100.00;98843.88;5037294;28;20028;-88
2024/01/21 06:47:55;;;;;;;13.13;1.58;;;;;;;6.92;100.00;98831.91;5040820;28;20475;-88
2024/01/21 06:50:21;;;;;;;9.52;1.30;;;;;;;6.88;100.00;98834.00;5042722;28;20472;-88
2024/01/21 06:52:49;;;;;;;15.85;1.98;;;;;;;6.90;100.00;98823.34;5039465;28;20036;-87
2024/01/21 06:55:14;;;;;;;15.32;1.95;;;;;;;6.91;100.00;98814.50;5037923;28;20027;-88
2024/01/21 06:57:41;;;;;;;19.50;3.90;;;;;;;6.91;100.00;98804.00;5053534;28;20035;-88
2024/01/21 07:00:07;;;;;;;8.40;1.75;;;;;;;6.97;100.00;98810.41;5053953;28;20086;-87
2024/01/21 07:02:33;;;;;;;14.90;2.15;;;;;;;6.98;100.00;98797.09;5045662;28;20089;-87
2024/01/21 07:04:59;;;;;;;18.17;2.30;;;;;;;6.97;100.00;98782.34;5054274;28;20032;-88
2024/01/21 07:07:25;;;;;;;20.80;2.22;;;;;;;6.98;100.00;98776.09;5055258;28;20036;-87
2024/01/21 07:09:50;;;;;;;22.08;2.42;;;;;;;7.01;100.00;98781.00;5066711;28;20035;-87
2024/01/21 07:12:16;;;;;;;19.92;3.05;;;;;;;7.05;100.00;98769.22;5041290;28;20126;-88
2024/01/21 07:14:42;;;;;;;26.00;3.92;;;;;;;7.09;100.00;98774.94;5057751;28;20487;-87
2024/01/21 07:17:10;;;;;;;20.65;3.42;;;;;;;7.15;100.00;98774.28;5057455;28;20078;-88
2024/01/21 07:19:36;;;;;;;23.45;4.15;;;;;;;7.16;100.00;98769.88;5073399;28;20047;-87
2024/01/21 07:22:02;;;;;;;21.10;4.38;;;;;;;7.25;100.00;98749.66;5061306;28;20046;-88
2024/01/21 07:24:28;;;;;;;25.02;2.70;;;;;;;7.28;100.00;98768.53;5061352;28;20031;-88
2024/01/21 07:26:54;;;;;;;23.55;3.50;;;;;;;7.33;100.00;98762.78;5066045;27;20034;-88
2024/01/21 07:29:20;;;;;;;22.02;3.67;;;;;;;7.37;100.00;98743.09;5068656;28;20031;-87
2024/01/21 07:31:46;;;;;;;24.27;2.88;;;;;;;7.38;100.00;98742.09;5067487;28;20523;-87
2024/01/21 07:34:12;;;;;;;23.98;3.50;;;;;;;7.46;100.00;98741.28;5057073;28;20036;-88
2024/01/21 07:36:38;;;;;;;19.60;3.03;;;;;;;7.51;100.00;98725.00;5072203;28;20031;-88
2024/01/21 07:39:05;;;;;;;20.58;2.88;;;;;;;7.57;100.00;98729.59;5061442;28;20035;-87
2024/01/21 07:41:31;;;;;;;27.55;3.88;;;;;;;7.59;100.00;98714.47;5077005;28;20031;-88
2024/01/21 07:43:57;;;;;;;38.17;4.55;;;;;;;7.65;100.00;98723.47;5062680;28;20044;-88
2024/01/21 07:46:24;;;;;;;25.58;3.00;;;;;;;7.72;100.00;98706.06;5064481;28;20027;-89
2024/01/21 07:48:50;;;;;;;28.77;3.63;;;;;;;7.80;100.00;98699.94;5067061;28;20043;-87
2024/01/21 07:51:19;;;;;;;36.28;4.60;;;;;;;7.87;100.00;98694.84;5077082;28;20047;-88
2024/01/21 07:53:46;;;;;;;43.60;4.53;;;;;;;7.87;100.00;98679.06;5062272;28;20077;-88
2024/01/21 07:56:14;;;;;;;32.97;4.47;;;;;;;8.01;100.00;98673.06;5062275;28;20032;-88
2024/01/21 07:58:40;;;;;;;41.92;5.90;;;;;;;8.03;100.00;98681.59;5056433;28;20067;-87
2024/01/21 08:01:11;;;;;;;37.92;4.40;;;;;;;8.17;100.00;98677.41;5088298;28;20038;-88
2024/01/21 08:03:37;;;;;;;29.90;5.60;;;;;;;8.18;100.00;98660.66;5082034;28;20071;-88
2024/01/21 08:06:09;;;;;;;27.52;3.58;;;;;;;8.27;100.00;98650.06;5081772;28;20028;-88
2024/01/21 08:08:36;;;;;;;35.85;5.32;;;;;;;8.31;100.00;98665.31;5072454;28;20036;-89
2024/01/21 08:11:01;;;;;;;33.78;5.07;;;;;;;8.39;100.00;98668.91;5086491;28;20042;-88
2024/01/21 08:13:27;;;;;;;41.63;5.07;;;;;;;8.46;100.00;98674.31;5078288;28;20419;-89
2024/01/21 08:15:53;;;;;;;37.20;5.57;;;;;;;8.51;100.00;98661.44;5060852;28;20023;-88
2024/01/21 08:18:19;;;;;;;32.95;5.18;;;;;;;8.50;100.00;98636.09;5058221;28;20383;-88
2024/01/21 08:20:46;;;;;;;48.13;6.68;;;;;;;8.58;100.00;98656.31;5073843;28;20101;-88
2024/01/21 08:23:12;;;;;;;43.55;5.47;;;;;;;8.64;100.00;98660.88;5069443;28;20028;-89
2024/01/21 08:25:38;;;;;;;29.73;4.50;;;;;;;8.63;100.00;98646.88;5088227;28;20032;-87
2024/01/21 08:28:04;;;;;;;27.02;4.07;;;;;;;8.73;100.00;98641.38;5089270;28;20081;-87
2024/01/21 08:30:30;;;;;;;35.53;4.18;;;;;;;8.75;100.00;98636.75;5087793;28;20024;-87
2024/01/21 08:32:56;;;;;;;31.83;4.72;;;;;;;8.77;100.00;98626.88;5057912;27;20020;-89
2024/01/21 08:35:22;;;;;;;41.88;5.45;;;;;;;8.84;100.00;98636.69;5058451;28;20040;-88
2024/01/21 08:37:49;;;;;;;33.92;4.32;;;;;;;8.90;100.00;98614.91;5060604;28;20467;-88
2024/01/21 08:40:14;;;;;;;37.17;5.28;;;;;;;8.96;100.00;98624.72;5075206;28;20038;-88
2024/01/21 08:42:41;;;;;;;27.27;4.88;;;;;;;8.99;100.00;98602.47;5055806;28;20810;-88
2024/01/21 08:45:15;;;;;;;36.65;6.05;;;;;;;9.01;100.00;98600.47;5082485;27;20436;-88
2024/01/21 08:47:41;;;;;;;32.53;5.30;;;;;;;9.01;100.00;98600.47;5056034;28;20043;-87
2024/01/21 08:50:08;;;;;;;31.63;5.15;;;;;;;9.03;100.00;98572.94;5056733;28;20368;-88
2024/01/21 08:52:34;;;;;;;32.72;5.93;;;;;;;9.09;100.00;98581.94;5058153;28;20548;-88
2024/01/21 08:54:59;;;;;;;29.73;6.03;;;;;;;9.13;100.00;98587.66;5074938;28;20032;-88
2024/01/21 08:57:25;;;;;;;42.30;6.43;;;;;;;9.11;100.00;98584.41;5056712;28;20127;-88
2024/01/21 08:59:52;;;;;;;36.47;5.32;;;;;;;9.14;100.00;98569.03;5056932;28;20098;-88
2024/01/21 09:02:21;;;;;;;37.33;6.05;;;;;;;9.14;100.00;98547.94;5052606;28;20046;-91
2024/01/21 09:04:47;;;;;;;38.50;5.97;;;;;;;9.17;100.00;98559.97;5058125;28;20028;-91
2024/01/21 09:07:13;;;;;;;27.35;4.55;;;;;;;9.15;100.00;98554.88;5076183;28;20046;-87
2024/01/21 09:09:39;;;;;;;22.23;4.13;;;;;;;9.14;100.00;98557.69;5074021;28;20082;-88
2024/01/21 09:12:07;;;;;;;35.55;4.80;;;;;;;9.12;100.00;98531.50;5058650;28;20054;-88
2024/01/21 09:14:34;;;;;;;37.20;5.50;;;;;;;9.10;100.00;98519.50;5068536;28;20030;-87
2024/01/21 09:17:00;;;;;;;28.27;4.20;;;;;;;9.11;100.00;98510.59;5056367;28;20031;-86
2024/01/21 09:19:25;;;;;;;29.58;4.10;;;;;;;9.08;100.00;98500.44;5053341;28;20561;-89
2024/01/21 09:21:51;;;;;;;29.10;5.32;;;;;;;9.03;100.00;98488.59;5054097;28;20058;-87
2024/01/21 09:24:18;;;;;;;35.80;5.82;;;;;;;9.06;100.00;98463.72;5054532;28;20403;-89
2024/01/21 09:26:43;;;;;;;24.73;4.05;;;;;;;9.02;100.00;98473.81;5059397;27;20027;-88
2024/01/21 09:29:09;;;;;;;25.20;4.57;;;;;;;9.04;100.00;98470.97;5056261;28;20035;-93
2024/01/21 09:31:35;;;;;;;26.92;4.65;;;;;;;9.00;100.00;98461.81;5061221;28;20024;-93
2024/01/21 09:34:01;;;;;;;23.98;3.65;;;;;;;9.03;100.00;98469.34;5074177;28;20375;-90
2024/01/21 09:36:27;;;;;;;26.40;3.92;;;;;;;9.04;100.00;98463.06;5057126;28;20043;-88
2024/01/21 09:38:54;;;;;;;22.05;3.33;;;;;;;9.05;100.00;98462.88;5101173;28;20479;-91
2024/01/21 09:41:38;;;;;;;26.30;3.50;;;;;;;9.15;100.00;98452.06;5061881;28;20129;-90
2024/01/21 09:44:04;;;;;;;20.77;3.65;;;;;;;9.15;100.00;98438.88;5075164;28;20110;-90
2024/01/21 09:46:30;;;;;;;23.75;4.32;;;;;;;9.18;100.00;98429.78;5064021;28;20028;-90
2024/01/21 09:48:59;;;;;;;29.92;5.15;;;;;;;9.20;100.00;98437.50;5080927;28;20039;-90
2024/01/21 09:51:26;;;;;;;26.20;8.13;;;;;;;9.25;100.00;98408.78;5077085;28;20032;-92
2024/01/21 09:53:52;;;;;;;33.63;8.50;;;;;;;9.29;100.00;98433.75;5059857;28;21346;-92
2024/01/21 09:56:18;;;;;;;20.88;4.40;;;;;;;9.27;100.00;98383.06;5060284;28;20042;-91
2024/01/21 09:58:47;;;;;;;24.17;4.30;;;;;;;9.35;100.00;98390.03;5060117;28;20503;-91
2024/01/21 10:01:14;;;;;;;24.00;3.30;;;;;;;9.36;100.00;98381.94;5059195;28;20067;-91
2024/01/21 10:03:40;;;;;;;23.60;4.10;;;;;;;9.33;100.00;98374.41;5042625;28;20195;-92
2024/01/21 10:06:07;;;;;;;19.95;3.50;;;;;;;9.39;100.00;98378.09;5064328;28;20130;-90
2024/01/21 10:08:36;;;;;;;18.30;3.95;;;;;;;9.40;100.00;98393.72;5082924;28;20039;-89
2024/01/21 10:11:02;;;;;;;14.50;3.05;;;;;;;9.44;100.00;98388.91;5054150;28;20510;-91
2024/01/21 10:13:30;;;;;;;22.42;4.43;;;;;;;9.49;100.00;98385.69;5056705;28;20031;-91
2024/01/21 10:15:57;;;;;;;20.45;4.07;;;;;;;9.48;100.00;98368.22;5076361;28;20036;-91
2024/01/21 10:18:26;;;;;;;23.50;4.07;;;;;;;9.50;100.00;98343.31;5055565;28;20074;-90
2024/01/21 10:20:52;;;;;;;21.00;3.88;;;;;;;9.50;100.00;98356.50;5038089;28;20051;-90
2024/01/21 10:23:18;;;;;;;15.85;3.03;;;;;;;9.55;100.00;98343.56;5031974;28;20032;-90
2024/01/21 10:25:47;;;;;;;18.45;3.50;;;;;;;9.62;100.00;98353.34;5031229;28;20036;-91
2024/01/21 10:28:13;;;;;;;19.35;3.85;;;;;;;9.64;100.00;98340.78;5029173;28;20040;-91
2024/01/21 10:30:44;;;;;;;17.90;3.42;;;;;;;9.68;100.00;98332.28;5038860;28;20122;-91
2024/01/21 10:33:13;;;;;;;22.20;3.35;;;;;;;9.73;100.00;98349.38;5052539;28;20086;-91
2024/01/21 10:35:40;;;;;;;18.42;3.53;;;;;;;9.72;100.00;98340.66;5037266;28;20111;-92
2024/01/21 10:38:10;;;;;;;16.30;4.13;;;;;;;9.80;100.00;98337.88;5041025;28;20348;-91
2024/01/21 10:40:43;;;;;;;17.73;4.03;;;;;;;9.83;100.00;98359.59;5044993;28;20040;-91
2024/01/21 10:43:16;;;;;;;23.23;6.93;;;;;;;9.94;100.00;98340.59;5042956;28;20123;-92
2024/01/21 10:45:45;;;;;;;21.75;5.43;;;;;;;9.91;100.00;98355.00;5040310;28;20480;-87
2024/01/21 10:48:14;;;;;;;22.80;9.32;;;;;;;9.99;100.00;98330.28;5047089;28;20028;-92
2024/01/21 10:50:42;;;;;;;20.33;5.45;;;;;;;9.98;100.00;98347.13;5041432;28;20119;-92
2024/01/21 10:53:12;;;;;;;18.33;4.97;;;;;;;10.08;100.00;98353.91;5037630;28;20040;-91
2024/01/21 10:55:42;;;;;;;20.25;3.42;;;;;;;10.09;100.00;98342.31;5044264;28;20067;-91
2024/01/21 10:58:08;;;;;;;21.65;4.65;;;;;;;10.12;100.00;98334.00;5045996;28;20036;-91
2024/01/21 11:00:38;;;;;;;17.23;3.15;;;;;;;10.16;100.00;98322.88;5058071;28;20047;-90
2024/01/21 11:03:23;;;;;;;15.65;3.63;;;;;;;10.20;100.00;98325.13;5041579;28;20032;-91
2024/01/21 11:06:00;;;;;;;15.43;2.97;;;;;;;10.20;100.00;98317.19;5045896;28;20037;-91
2024/01/21 11:08:27;;;;;;;19.65;3.33;;;;;;;10.20;100.00;98336.50;5039972;28;20418;-93
2024/01/21 11:11:08;;;;;;;10.88;2.70;;;;;;;10.27;100.00;98310.16;5037002;28;20036;-91
2024/01/21 11:13:47;;;;;;;14.73;3.22;;;;;;;10.27;100.00;98310.94;5043747;28;20095;-92
2024/01/21 11:16:25;;;;;;;14.18;3.35;;;;;;;10.33;100.00;98300.63;5056878;28;20040;-92
2024/01/21 11:19:09;;;;;;;26.13;10.63;;;;;;;10.32;100.00;98310.34;5057901;28;20071;-92
2024/01/21 11:21:40;;;;;;;16.92;5.22;;;;;;;10.37;100.00;98299.19;5074398;28;20726;-92
2024/01/21 11:24:10;;;;;;;14.75;5.65;;;;;;;10.39;100.00;98295.38;5058549;28;20066;-90
2024/01/21 11:26:38;;;;;;;13.88;2.67;;;;;;;10.39;100.00;98279.53;5059293;28;20036;-92
2024/01/21 11:29:25;;;;;;;11.30;2.70;;;;;;;10.47;100.00;98260.09;5060878;28;20062;-91
2024/01/21 11:32:00;;;;;;;12.40;3.08;;;;;;;10.53;100.00;98267.22;5074194;28;20936;-92
2024/01/21 11:34:38;;;;;;;11.05;2.78;;;;;;;10.54;100.00;98262.75;5059907;28;20035;-91
2024/01/21 11:37:13;;;;;;;12.70;2.88;;;;;;;10.52;100.00;98247.09;5076905;28;20044;-90
2024/01/21 11:39:49;;;;;;;13.32;4.15;;;;;;;10.50;100.00;98233.28;5073720;28;20067;-92
2024/01/21 11:42:16;;;;;;;9.43;2.35;;;;;;;10.51;100.00;98234.88;5060861;28;20567;-91
2024/01/21 11:44:50;;;;;;;15.52;3.13;;;;;;;10.57;100.00;98240.41;5060512;28;20039;-91
2024/01/21 11:47:44;;;;;;;14.18;3.40;;;;;;;10.61;100.00;98233.69;5056498;28;20044;-91
2024/01/21 11:54:01;;;;;;;13.82;2.53;;;;;;;10.57;100.00;98219.28;5049357;28;20051;-90
2024/01/21 11:56:27;;;;;;;6.75;1.55;;;;;;;10.59;100.00;98204.84;5061546;28;20503;-88
2024/01/21 11:58:53;;;;;;;7.88;1.92;;;;;;;10.63;100.00;98205.25;5064143;28;20151;-90
2024/01/21 12:01:20;;;;;;;10.05;1.90;;;;;;;10.62;100.00;98219.50;5058971;28;20050;-93
2024/01/21 12:03:49;;;;;;;12.38;1.88;;;;;;;10.61;100.00;98192.25;5065284;27;20171;-91
2024/01/21 12:06:16;;;;;;;11.13;2.10;;;;;;;10.60;100.00;98197.72;5058831;28;20044;-91
2024/01/21 12:08:44;;;;;;;9.98;2.47;;;;;;;10.56;100.00;98188.59;5059149;28;20032;-92
2024/01/21 12:11:12;;;;;;;7.82;1.45;;;;;;;10.53;100.00;98172.13;5058023;28;20023;-91
2024/01/21 12:13:39;;;;;;;10.00;1.65;;;;;;;10.60;100.00;98198.56;5074885;28;20051;-91
2024/01/21 12:16:09;;;;;;;10.45;1.73;;;;;;;10.62;100.00;98158.72;5060989;28;20379;-92
2024/01/21 12:18:40;;;;;;;8.43;1.52;;;;;;;10.57;100.00;98177.00;5073397;28;20059;-91
2024/01/21 12:21:06;;;;;;;4.32;1.40;;;;;;;10.57;100.00;98158.50;5073489;28;20082;-92
2024/01/21 12:23:32;;;;;;;8.00;1.30;;;;;;;10.50;100.00;98154.03;5070698;28;20039;-92
2024/01/21 12:25:59;;;;;;;8.88;1.55;;;;;;;10.59;100.00;98133.50;5068938;28;20115;-91
2024/01/21 12:28:25;;;;;;;9.43;1.40;;;;;;;10.53;100.00;98139.59;5059628;28;21102;-92
2024/01/21 12:30:53;;;;;;;4.75;1.30;;;;;;;10.63;100.00;98147.13;5059549;28;20032;-93
2024/01/21 12:33:19;;;;;;;7.95;1.55;;;;;;;10.57;100.00;98142.66;5060890;28;20457;-93
2024/01/21 12:35:45;;;;;;;7.72;1.98;;;;;;;10.56;100.00;98127.84;5062040;28;20019;-91
2024/01/21 12:38:13;;;;;;;8.63;1.77;;;;;;;10.61;100.00;98110.34;5064498;28;20044;-91
2024/01/21 12:40:39;;;;;;;8.32;1.42;;;;;;;10.59;100.00;98091.25;5057670;28;20036;-90
2024/01/21 12:43:05;;;;;;;10.70;1.40;;;;;;;10.57;100.00;98084.56;5057456;28;20038;-90
2024/01/21 12:45:31;;;;;;;5.53;1.10;;;;;;;10.54;100.00;98072.56;5051202;28;20032;-90
2024/01/21 12:48:19;;;;;;;4.93;1.15;;;;;;;10.56;100.00;98080.28;5073485;28;20047;-90
2024/01/21 12:50:45;;;;;;;4.47;1.20;;;;;;;10.52;100.00;98069.31;5056351;28;20065;-90
2024/01/21 12:53:11;;;;;;;7.20;1.30;;;;;;;10.52;100.00;98056.09;5056013;28;20035;-90
2024/01/21 12:55:37;;;;;;;6.07;1.08;;;;;;;10.52;100.00;98037.63;5049494;28;20047;-90
2024/01/21 12:58:03;;;;;;;5.60;1.48;;;;;;;10.54;100.00;98030.31;5059598;28;20118;-92
2024/01/21 13:00:29;;;;;;;4.18;0.70;;;;;;;10.53;100.00;98023.38;5059825;28;20047;-91
2024/01/21 13:02:55;;;;;;;5.30;0.77;;;;;;;10.56;100.00;98040.66;5057195;28;21177;-92
2024/01/21 13:05:21;;;;;;;7.22;1.10;;;;;;;10.59;100.00;98021.78;5056455;28;20027;-91
2024/01/21 13:07:46;;;;;;;7.30;1.25;;;;;;;10.55;100.00;97997.59;5060315;28;20053;-91
2024/01/21 13:10:12;;;;;;;7.85;1.40;;;;;;;10.50;100.00;98007.94;5062048;28;20038;-92
2024/01/21 13:12:38;;;;;;;9.73;1.48;;;;;;;10.56;100.00;98014.25;5061001;28;20063;-91
2024/01/21 13:15:04;;;;;;;14.07;1.77;;;;;;;10.59;100.00;97992.72;5065862;28;20080;-91
2024/01/21 13:17:32;;;;;;;6.90;1.63;;;;;;;10.56;100.00;97995.78;5061020;28;20055;-91
2024/01/21 13:19:58;;;;;;;10.95;2.10;;;;;;;10.53;100.00;97946.78;5042461;28;20813;-92
2024/01/21 13:22:24;;;;;;;7.45;2.65;;;;;;;10.52;100.00;97961.03;5040461;28;20046;-92
2024/01/21 13:24:49;;;;;;;11.68;3.47;;;;;;;10.48;100.00;97944.78;5045997;28;20044;-92
2024/01/21 13:27:26;;;;;;;10.35;2.55;;;;;;;10.50;100.00;97907.59;5067705;28;20044;-92
2024/01/21 13:32:43;;;;;;;8.52;1.88;;;;;;;10.39;100.00;97923.03;5052577;28;20063;-91
2024/01/21 13:35:09;;;;;;;9.43;1.80;;;;;;;10.35;100.00;97907.81;5050957;28;20026;-91
2024/01/21 13:37:36;;;;;;;9.93;1.45;;;;;;;10.42;100.00;97898.84;5034984;28;20044;-93
2024/01/21 13:40:02;;;;;;;6.05;1.67;;;;;;;10.33;100.00;97886.06;5072722;28;20024;-91
2024/01/21 13:42:29;;;;;;;5.32;1.52;;;;;;;10.33;100.00;97894.81;5027700;28;20098;-92
2024/01/21 13:44:54;;;;;;;8.45;1.13;;;;;;;10.34;100.00;97875.31;5057049;28;20070;-92